createdAt,value
2018-10-19T00:02:22.079Z,14.10
2018-10-19T00:04:57.028Z,14.20
2018-10-19T00:07:32.009Z,14.20
2018-10-19T00:10:07.954Z,14.20
2018-10-19T00:12:43.794Z,14.20
2018-10-19T00:15:22.022Z,14.20
2018-10-19T00:17:56.715Z,14.10
2018-10-19T00:20:31.789Z,14.20
2018-10-19T00:23:07.167Z,14.20
2018-10-19T00:25:42.406Z,14.20
2018-10-19T00:28:18.300Z,14.20
2018-10-19T00:30:54.954Z,14.20
2018-10-19T00:33:29.790Z,14.20
2018-10-19T00:36:05.149Z,14.20
2018-10-19T00:38:40.346Z,14.20
2018-10-19T00:41:15.239Z,14.20
2018-10-19T00:43:50.492Z,14.20
2018-10-19T00:46:25.502Z,14.20
2018-10-19T00:49:00.698Z,14.20
2018-10-19T00:51:35.768Z,14.20
2018-10-19T00:54:10.819Z,14.20
2018-10-19T00:56:45.843Z,14.20
2018-10-19T00:59:20.791Z,14.20
2018-10-19T01:01:55.925Z,14.20
2018-10-19T01:04:30.997Z,14.20
2018-10-19T01:07:05.923Z,14.20
2018-10-19T01:09:40.867Z,14.20
2018-10-19T01:12:15.978Z,14.20
2018-10-19T01:14:50.691Z,14.10
2018-10-19T01:17:25.613Z,14.10
2018-10-19T01:20:02.008Z,14.10
2018-10-19T01:22:37.782Z,14.10
2018-10-19T01:25:12.615Z,14.10
2018-10-19T01:27:47.789Z,14.00
2018-10-19T01:30:22.790Z,14.00
2018-10-19T01:32:57.913Z,14.00
2018-10-19T01:35:32.930Z,14.00
2018-10-19T01:38:07.995Z,14.00
2018-10-19T01:40:42.725Z,14.00
2018-10-19T01:43:17.915Z,14.10
2018-10-19T01:45:57.234Z,14.00
2018-10-19T01:48:33.044Z,14.00
2018-10-19T01:51:07.970Z,14.00
2018-10-19T01:53:43.181Z,14.00
2018-10-19T01:56:18.318Z,14.00
2018-10-19T01:58:53.163Z,14.00
2018-10-19T02:01:28.517Z,14.00
2018-10-19T02:04:03.605Z,14.00
2018-10-19T02:06:38.761Z,13.90
2018-10-19T02:09:13.740Z,13.90
2018-10-19T02:11:49.065Z,13.90
2018-10-19T02:14:24.256Z,13.90
2018-10-19T02:16:59.998Z,13.90
2018-10-19T02:19:35.209Z,13.90
2018-10-19T02:22:10.054Z,13.90
2018-10-19T02:24:45.144Z,14.00
2018-10-19T02:27:20.794Z,13.90
2018-10-19T02:29:56.004Z,14.00
2018-10-19T02:32:31.442Z,13.90
2018-10-19T02:35:07.035Z,13.90
2018-10-19T02:37:42.165Z,13.90
2018-10-19T02:40:17.229Z,13.90
2018-10-19T02:42:52.606Z,13.90
2018-10-19T02:45:27.616Z,13.90
2018-10-19T02:48:03.765Z,13.90
2018-10-19T02:50:39.754Z,13.80
2018-10-19T02:53:14.985Z,13.80
2018-10-19T02:55:50.040Z,13.80
2018-10-19T02:58:25.018Z,13.80
2018-10-19T03:00:59.895Z,13.80
2018-10-19T03:03:34.738Z,13.80
2018-10-19T03:06:09.884Z,13.80
2018-10-19T03:08:44.809Z,13.80
2018-10-19T03:11:20.469Z,13.80
2018-10-19T03:13:55.701Z,13.90
2018-10-19T03:16:31.424Z,13.90
2018-10-19T03:19:06.588Z,13.90
2018-10-19T03:21:41.863Z,13.80
2018-10-19T03:24:17.647Z,13.80
2018-10-19T03:26:52.769Z,13.80
2018-10-19T03:29:27.917Z,13.80
2018-10-19T03:32:03.603Z,13.80
2018-10-19T03:34:38.642Z,13.80
2018-10-19T03:37:13.606Z,13.80
2018-10-19T03:39:48.314Z,13.70
2018-10-19T03:42:24.415Z,13.70
2018-10-19T03:44:59.586Z,13.70
2018-10-19T03:47:34.874Z,13.70
2018-10-19T03:50:09.909Z,13.70
2018-10-19T03:52:44.914Z,13.70
2018-10-19T03:55:20.337Z,13.70
2018-10-19T03:57:55.761Z,13.70
2018-10-19T04:00:31.321Z,13.70
2018-10-19T04:03:06.826Z,13.70
2018-10-19T04:05:41.747Z,13.70
2018-10-19T04:08:16.817Z,13.70
2018-10-19T04:10:51.554Z,13.60
2018-10-19T04:13:26.634Z,13.60
2018-10-19T04:16:02.019Z,13.60
2018-10-19T04:18:36.742Z,13.60
2018-10-19T04:21:11.665Z,13.60
2018-10-19T04:23:47.144Z,13.60
2018-10-19T04:26:22.372Z,13.60
2018-10-19T04:28:57.394Z,13.60
2018-10-19T04:31:32.566Z,13.60
2018-10-19T04:34:10.679Z,13.60
2018-10-19T04:36:46.576Z,13.50
2018-10-19T04:39:21.683Z,13.50
2018-10-19T04:41:56.962Z,13.50
2018-10-19T04:44:32.405Z,13.50
2018-10-19T04:47:08.021Z,13.50
2018-10-19T04:49:43.142Z,13.50
2018-10-19T04:52:18.959Z,13.50
2018-10-19T04:54:54.026Z,13.50
2018-10-19T04:57:29.121Z,13.40
2018-10-19T05:00:03.924Z,13.40
2018-10-19T05:02:39.496Z,13.40
2018-10-19T05:05:14.532Z,13.30
2018-10-19T05:07:49.695Z,13.30
2018-10-19T05:10:24.763Z,13.30
2018-10-19T05:13:00.003Z,13.30
2018-10-19T05:15:35.083Z,13.20
2018-10-19T05:18:10.823Z,13.20
2018-10-19T05:20:46.131Z,13.20
2018-10-19T05:23:21.042Z,13.10
2018-10-19T05:25:57.016Z,13.10
2018-10-19T05:28:32.920Z,13.10
2018-10-19T05:31:07.587Z,13.00
2018-10-19T05:33:42.893Z,13.00
2018-10-19T05:36:18.091Z,13.00
2018-10-19T05:38:53.226Z,13.00
2018-10-19T05:41:28.220Z,12.90
2018-10-19T05:44:03.339Z,12.90
2018-10-19T05:46:38.936Z,12.90
2018-10-19T05:49:14.244Z,12.90
2018-10-19T05:51:49.476Z,12.90
2018-10-19T05:54:26.265Z,12.90
2018-10-19T05:57:01.799Z,12.80
2018-10-19T05:59:36.882Z,12.80
2018-10-19T06:02:11.921Z,12.90
2018-10-19T06:04:46.935Z,12.90
2018-10-19T06:07:22.887Z,12.80
2018-10-19T06:09:57.993Z,12.80
2018-10-19T06:12:33.179Z,12.80
2018-10-19T06:15:09.541Z,12.80
2018-10-19T06:17:45.074Z,12.70
2018-10-19T06:20:20.206Z,12.70
2018-10-19T06:22:55.699Z,12.70
2018-10-19T06:25:30.930Z,12.70
2018-10-19T06:28:06.454Z,12.70
2018-10-19T06:30:41.603Z,12.70
2018-10-19T06:33:16.769Z,12.70
2018-10-19T06:35:52.131Z,12.70
2018-10-19T06:38:27.490Z,12.70
2018-10-19T06:41:02.521Z,12.70
2018-10-19T06:43:37.868Z,12.70
2018-10-19T06:46:12.968Z,12.70
2018-10-19T06:48:47.777Z,12.70
2018-10-19T06:51:23.149Z,12.80
2018-10-19T06:53:58.260Z,12.80
2018-10-19T06:56:33.467Z,12.80
2018-10-19T06:59:08.525Z,12.90
2018-10-19T07:01:43.694Z,12.90
2018-10-19T07:04:19.621Z,12.90
2018-10-19T07:06:54.715Z,12.90
2018-10-19T07:09:29.663Z,13.00
2018-10-19T07:12:04.852Z,13.00
2018-10-19T07:14:40.117Z,13.10
2018-10-19T07:17:15.442Z,13.10
2018-10-19T07:19:50.859Z,13.10
2018-10-19T07:22:25.980Z,13.20
2018-10-19T07:25:01.890Z,13.10
2018-10-19T07:27:37.167Z,13.10
2018-10-19T07:30:12.426Z,13.20
2018-10-19T07:32:47.760Z,13.20
2018-10-19T07:35:23.414Z,13.20
2018-10-19T07:37:58.382Z,13.20
2018-10-19T07:40:33.455Z,13.30
2018-10-19T07:43:08.489Z,13.30
2018-10-19T07:45:43.543Z,13.40
2018-10-19T07:48:18.577Z,13.50
2018-10-19T07:50:54.104Z,13.50
2018-10-19T07:53:29.162Z,13.60
2018-10-19T07:56:05.861Z,13.70
2018-10-19T07:58:40.966Z,13.70
2018-10-19T08:01:16.231Z,13.80
2018-10-19T08:03:52.038Z,13.80
2018-10-19T08:06:30.251Z,13.90
2018-10-19T08:09:09.474Z,13.90
2018-10-19T08:11:45.102Z,14.10
2018-10-19T08:14:20.101Z,14.10
2018-10-19T08:16:55.164Z,14.20
2018-10-19T08:19:30.199Z,14.20
2018-10-19T08:22:05.256Z,14.30
2018-10-19T08:24:40.323Z,14.40
2018-10-19T08:27:15.592Z,14.40
2018-10-19T08:29:51.062Z,14.50
2018-10-19T08:32:25.870Z,14.50
2018-10-19T08:35:01.984Z,14.50
2018-10-19T08:37:37.307Z,14.70
2018-10-19T08:40:12.367Z,14.70
2018-10-19T08:42:47.787Z,14.80
2018-10-19T08:45:22.559Z,14.80
2018-10-19T08:47:57.408Z,14.90
2018-10-19T08:50:33.082Z,14.90
2018-10-19T08:53:08.839Z,15.00
2018-10-19T08:55:44.155Z,15.00
2018-10-19T08:58:19.311Z,15.00
2018-10-19T09:00:54.490Z,15.00
2018-10-19T09:03:29.716Z,15.00
2018-10-19T09:06:05.631Z,15.00
2018-10-19T09:08:40.557Z,15.10
2018-10-19T09:11:15.852Z,15.10
2018-10-19T09:13:50.661Z,15.10
2018-10-19T09:16:26.399Z,15.10
2018-10-19T09:19:01.391Z,15.10
2018-10-19T09:21:36.869Z,15.10
2018-10-19T09:24:11.865Z,15.10
2018-10-19T09:26:47.698Z,15.00
2018-10-19T09:29:23.115Z,15.00
2018-10-19T09:31:58.371Z,15.10
2018-10-19T09:34:33.724Z,15.20
2018-10-19T09:37:10.230Z,15.20
2018-10-19T09:39:45.843Z,15.30
2018-10-19T09:42:21.150Z,15.30
2018-10-19T09:44:55.930Z,15.20
2018-10-19T09:47:31.531Z,15.20
2018-10-19T09:50:08.190Z,15.30
2018-10-19T09:52:43.479Z,15.40
2018-10-19T09:55:18.847Z,15.50
2018-10-19T09:57:53.997Z,15.60
2018-10-19T10:00:34.499Z,15.60
2018-10-19T10:03:09.511Z,15.60
2018-10-19T10:05:45.733Z,15.60
2018-10-19T10:08:20.908Z,15.60
2018-10-19T10:10:55.751Z,15.50
2018-10-19T10:13:30.951Z,15.50
2018-10-19T10:16:06.264Z,15.40
2018-10-19T10:18:41.082Z,15.40
2018-10-19T10:21:16.794Z,15.50
2018-10-19T10:23:51.795Z,15.50
2018-10-19T10:26:27.345Z,15.50
2018-10-19T10:29:02.285Z,15.50
2018-10-19T10:31:37.300Z,15.50
2018-10-19T10:34:12.554Z,15.50
2018-10-19T10:36:47.530Z,15.50
2018-10-19T10:39:22.659Z,15.50
2018-10-19T10:41:57.729Z,15.60
2018-10-19T10:44:32.750Z,15.60
2018-10-19T10:47:08.830Z,15.70
2018-10-19T10:49:43.914Z,15.80
2018-10-19T10:52:18.873Z,15.90
2018-10-19T10:54:54.176Z,15.90
2018-10-19T10:57:28.877Z,16.00
2018-10-19T11:00:04.203Z,16.10
2018-10-19T11:02:39.236Z,16.20
2018-10-19T11:05:15.004Z,16.30
2018-10-19T11:07:50.720Z,16.40
2018-10-19T11:10:25.684Z,16.40
2018-10-19T11:13:01.585Z,16.50
2018-10-19T11:15:36.768Z,16.60
2018-10-19T11:18:11.918Z,16.60
2018-10-19T11:20:47.024Z,16.70
2018-10-19T11:23:22.295Z,16.70
2018-10-19T11:25:57.535Z,16.60
2018-10-19T11:28:32.623Z,16.60
2018-10-19T11:31:08.167Z,16.60
2018-10-19T11:33:43.543Z,16.50
2018-10-19T11:36:18.469Z,16.60
2018-10-19T11:38:53.651Z,16.70
2018-10-19T11:41:28.674Z,16.80
2018-10-19T11:44:04.171Z,17.00
2018-10-19T11:46:39.571Z,17.10
2018-10-19T11:49:14.415Z,17.10
2018-10-19T11:51:49.557Z,17.20
2018-10-19T11:54:24.498Z,17.40
2018-10-19T11:56:59.709Z,17.40
2018-10-19T11:59:35.045Z,17.50
2018-10-19T12:02:10.795Z,17.50
2018-10-19T12:04:46.041Z,17.50
2018-10-19T12:07:21.647Z,17.50
2018-10-19T12:09:56.568Z,17.60
2018-10-19T12:12:32.235Z,17.50
2018-10-19T12:15:08.800Z,17.60
2018-10-19T12:17:44.487Z,17.60
2018-10-19T12:20:19.836Z,17.50
2018-10-19T12:22:55.195Z,17.50
2018-10-19T12:25:30.047Z,17.30
2018-10-19T12:28:05.439Z,17.40
2018-10-19T12:30:40.530Z,17.50
2018-10-19T12:33:15.351Z,17.50
2018-10-19T12:35:50.470Z,17.60
2018-10-19T12:38:25.309Z,17.70
2018-10-19T12:41:00.651Z,17.80
2018-10-19T12:43:35.879Z,18.00
2018-10-19T12:46:26.064Z,18.10
2018-10-19T12:49:01.319Z,18.20
2018-10-19T12:51:37.050Z,18.30
2018-10-19T12:54:12.196Z,18.40
2018-10-19T12:56:47.296Z,18.40
2018-10-19T12:59:22.716Z,18.40
2018-10-19T13:01:58.103Z,18.30
2018-10-19T13:04:33.041Z,18.30
2018-10-19T13:07:08.421Z,18.20
2018-10-19T13:09:43.423Z,18.00
2018-10-19T13:12:18.909Z,17.90
2018-10-19T13:14:54.655Z,17.80
2018-10-19T13:17:30.041Z,17.80
2018-10-19T13:20:05.306Z,17.70
2018-10-19T13:22:40.537Z,17.70
2018-10-19T13:25:15.851Z,17.60
2018-10-19T13:27:51.743Z,17.60
2018-10-19T13:30:28.264Z,17.60
2018-10-19T13:33:03.821Z,17.60
2018-10-19T13:35:38.873Z,17.70
2018-10-19T13:38:14.494Z,17.80
2018-10-19T13:40:50.157Z,18.00
2018-10-19T13:43:25.718Z,18.10
2018-10-19T13:46:01.426Z,18.20
2018-10-19T13:48:36.492Z,18.30
2018-10-19T13:51:11.701Z,18.40
2018-10-19T13:53:47.174Z,18.60
2018-10-19T13:56:22.106Z,18.70
2018-10-19T13:58:57.433Z,18.70
2018-10-19T14:01:32.607Z,18.70
2018-10-19T14:04:07.616Z,18.60
2018-10-19T14:06:42.675Z,18.60
2018-10-19T14:09:17.460Z,18.60
2018-10-19T14:11:52.693Z,18.60
2018-10-19T14:14:27.784Z,18.60
2018-10-19T14:17:03.146Z,18.60
2018-10-19T14:19:38.282Z,18.60
2018-10-19T14:22:13.050Z,18.40
2018-10-19T14:24:48.997Z,18.30
2018-10-19T14:27:24.069Z,18.30
2018-10-19T14:29:58.955Z,18.30
2018-10-19T14:32:33.983Z,18.00
2018-10-19T14:35:09.563Z,18.30
2018-10-19T14:37:45.595Z,18.10
2018-10-19T14:40:21.096Z,18.20
2018-10-19T14:42:56.211Z,18.50
2018-10-19T14:45:31.237Z,18.20
2018-10-19T14:48:06.372Z,18.30
2018-10-19T14:50:41.857Z,18.20
2018-10-19T14:53:16.578Z,18.20
2018-10-19T14:55:51.854Z,18.10
2018-10-19T14:58:26.677Z,18.10
2018-10-19T15:01:01.857Z,18.00
2018-10-19T15:03:36.963Z,18.00
2018-10-19T15:06:11.948Z,17.90
2018-10-19T15:08:47.098Z,17.80
2018-10-19T15:11:22.186Z,17.70
2018-10-19T15:13:57.051Z,17.70
2018-10-19T15:16:32.440Z,17.60
2018-10-19T15:19:07.755Z,17.60
2018-10-19T15:21:43.359Z,17.60
2018-10-19T15:24:18.290Z,17.50
2018-10-19T15:26:54.046Z,17.50
2018-10-19T15:29:33.773Z,17.50
2018-10-19T15:32:08.901Z,17.40
2018-10-19T15:34:43.946Z,17.40
2018-10-19T15:37:19.169Z,17.40
2018-10-19T15:39:55.188Z,17.30
2018-10-19T15:42:30.150Z,17.30
2018-10-19T15:45:07.099Z,17.30
2018-10-19T15:47:41.998Z,17.30
2018-10-19T15:50:17.573Z,17.30
2018-10-19T15:52:52.761Z,17.30
2018-10-19T15:55:27.757Z,17.20
2018-10-19T15:58:02.681Z,17.20
2018-10-19T16:00:38.373Z,17.20
2018-10-19T16:03:13.298Z,17.10
2018-10-19T16:05:48.414Z,17.10
2018-10-19T16:08:23.086Z,17.10
2018-10-19T16:10:58.515Z,17.10
2018-10-19T16:13:33.678Z,17.00
2018-10-19T16:16:09.180Z,17.00
2018-10-19T16:18:44.257Z,17.00
2018-10-19T16:21:19.172Z,16.80
2018-10-19T16:23:54.251Z,16.70
2018-10-19T16:26:29.520Z,16.60
2018-10-19T16:29:04.392Z,16.60
2018-10-19T16:31:39.428Z,16.50
2018-10-19T16:34:14.817Z,16.50
2018-10-19T16:36:50.095Z,16.40
2018-10-19T16:39:25.870Z,16.40
2018-10-19T16:42:00.888Z,16.30
2018-10-19T16:44:36.058Z,16.30
2018-10-19T16:47:11.579Z,16.20
2018-10-19T16:49:46.635Z,16.20
2018-10-19T16:52:21.692Z,16.10
2018-10-19T16:54:56.999Z,16.10
2018-10-19T16:57:32.186Z,16.10
2018-10-19T17:00:09.174Z,16.00
2018-10-19T17:02:45.146Z,15.90
2018-10-19T17:05:20.711Z,15.90
2018-10-19T17:08:01.039Z,15.90
2018-10-19T17:10:35.969Z,15.80
2018-10-19T17:13:11.940Z,15.80
2018-10-19T17:15:47.003Z,15.80
2018-10-19T17:18:22.391Z,15.80
2018-10-19T17:20:57.492Z,15.70
2018-10-19T17:23:33.113Z,15.70
2018-10-19T17:26:08.599Z,15.60
2018-10-19T17:28:43.767Z,15.60
2018-10-19T17:31:19.421Z,15.60
2018-10-19T17:33:55.191Z,15.60
2018-10-19T17:36:30.094Z,15.60
2018-10-19T17:39:08.319Z,15.50
2018-10-19T17:41:43.444Z,15.50
2018-10-19T17:44:19.283Z,15.50
2018-10-19T17:46:54.869Z,15.40
2018-10-19T17:49:31.267Z,15.40
2018-10-19T17:52:06.895Z,15.40
2018-10-19T17:54:42.258Z,15.30
2018-10-19T17:57:17.413Z,15.30
2018-10-19T17:59:52.434Z,15.30
2018-10-19T18:02:27.674Z,15.30
2018-10-19T18:05:03.801Z,15.30
2018-10-19T18:07:39.889Z,15.30
2018-10-19T18:10:20.624Z,15.20
2018-10-19T18:12:55.759Z,15.20
2018-10-19T18:15:30.886Z,15.20
2018-10-19T18:18:06.278Z,15.20
2018-10-19T18:20:41.854Z,15.10
2018-10-19T18:23:17.678Z,15.10
2018-10-19T18:25:53.271Z,15.10
2018-10-19T18:28:28.400Z,15.00
2018-10-19T18:31:04.058Z,15.00
2018-10-19T18:33:34.281Z,15.00
2018-10-19T18:36:03.397Z,15.00
2018-10-19T18:38:34.828Z,14.90
2018-10-19T18:41:04.245Z,14.90
2018-10-19T18:43:34.913Z,14.90
2018-10-19T18:46:05.962Z,14.90
2018-10-19T18:48:36.681Z,14.80
2018-10-19T18:51:08.291Z,14.80
2018-10-19T18:53:38.843Z,14.80
2018-10-19T18:56:09.660Z,14.80
2018-10-19T18:58:39.205Z,14.80
2018-10-19T19:01:08.951Z,14.80
2018-10-19T19:03:38.726Z,14.80
2018-10-19T19:06:09.039Z,14.80
2018-10-19T19:08:38.919Z,14.70
2018-10-19T19:11:08.203Z,14.70
2018-10-19T19:13:46.841Z,14.60
2018-10-19T19:16:21.470Z,14.60
2018-10-19T19:18:51.488Z,14.50
2018-10-19T19:21:21.471Z,14.40
2018-10-19T19:24:01.982Z,14.40
2018-10-19T19:26:37.234Z,14.30
2018-10-19T19:29:12.756Z,14.30
2018-10-19T19:31:48.098Z,14.30
2018-10-19T19:34:28.906Z,14.20
2018-10-19T19:36:58.580Z,14.20
2018-10-19T19:39:34.615Z,14.10
2018-10-19T19:42:15.275Z,14.10
2018-10-19T19:44:55.972Z,14.00
2018-10-19T19:47:36.281Z,14.00
2018-10-19T19:50:11.831Z,13.90
2018-10-19T19:52:47.921Z,13.90
2018-10-19T19:55:23.350Z,13.80
2018-10-19T19:57:59.440Z,13.80
2018-10-19T20:00:34.393Z,13.80
2018-10-19T20:03:07.115Z,13.70
2018-10-19T20:05:42.435Z,13.70
2018-10-19T20:08:17.579Z,13.70
2018-10-19T20:10:52.893Z,13.60
2018-10-19T20:13:28.260Z,13.60
2018-10-19T20:16:03.077Z,13.60
2018-10-19T20:18:38.714Z,13.50
2018-10-19T20:21:08.511Z,13.50
2018-10-19T20:23:43.844Z,13.40
2018-10-19T20:26:19.130Z,13.40
2018-10-19T20:28:54.873Z,13.40
2018-10-19T20:31:30.837Z,13.40
2018-10-19T20:34:02.446Z,13.30
2018-10-19T20:36:37.329Z,13.30
2018-10-19T20:39:13.396Z,13.30
2018-10-19T20:41:49.231Z,13.20
2018-10-19T20:44:25.589Z,13.20
2018-10-19T20:47:00.566Z,13.20
2018-10-19T20:49:36.143Z,13.20
2018-10-19T20:52:11.138Z,13.20
2018-10-19T20:54:46.708Z,13.10
2018-10-19T20:57:22.082Z,13.10
2018-10-19T20:59:57.191Z,13.10
2018-10-19T21:02:32.672Z,13.00
2018-10-19T21:05:09.435Z,13.00
2018-10-19T21:07:51.991Z,13.00
2018-10-19T21:10:27.370Z,12.90
2018-10-19T21:13:03.091Z,12.80
2018-10-19T21:15:38.393Z,12.80
2018-10-19T21:18:14.149Z,12.80
2018-10-19T21:20:49.213Z,12.70
2018-10-19T21:23:24.449Z,12.70
2018-10-19T21:25:59.606Z,12.70
2018-10-19T21:28:35.360Z,12.60
2018-10-19T21:31:10.491Z,12.60
2018-10-19T21:33:46.115Z,12.60
2018-10-19T21:36:21.846Z,12.50
2018-10-19T21:39:03.917Z,12.50
2018-10-19T21:41:39.125Z,12.40
2018-10-19T21:44:14.470Z,12.40
2018-10-19T21:46:49.757Z,12.40
2018-10-19T21:49:24.844Z,12.40
2018-10-19T21:51:54.580Z,12.40
2018-10-19T21:54:29.950Z,12.30
2018-10-19T21:57:05.259Z,12.30
2018-10-19T21:59:40.365Z,12.20
2018-10-19T22:02:15.550Z,12.20
2018-10-19T22:04:51.277Z,12.20
2018-10-19T22:07:26.959Z,12.20
2018-10-19T22:10:02.536Z,12.20
2018-10-19T22:12:37.865Z,12.20
2018-10-19T22:15:12.749Z,12.20
2018-10-19T22:17:47.878Z,12.20
2018-10-19T22:20:22.768Z,12.20
2018-10-19T22:22:57.992Z,12.10
2018-10-19T22:25:32.846Z,12.10
2018-10-19T22:28:08.044Z,12.10
2018-10-19T22:30:43.489Z,12.00
2018-10-19T22:33:18.299Z,12.00
2018-10-19T22:35:53.624Z,12.00
2018-10-19T22:38:29.394Z,11.90
2018-10-19T22:41:04.483Z,11.90
2018-10-19T22:43:39.935Z,11.90
2018-10-19T22:46:14.870Z,11.90
2018-10-19T22:48:50.459Z,11.80
2018-10-19T22:51:25.597Z,11.80
2018-10-19T22:54:01.085Z,11.80
2018-10-19T22:56:36.482Z,11.80
2018-10-19T22:59:11.586Z,11.70
2018-10-19T23:01:46.389Z,11.70
2018-10-19T23:04:21.510Z,11.60
2018-10-19T23:06:59.667Z,11.60
2018-10-19T23:09:34.809Z,11.60
2018-10-19T23:12:09.817Z,11.60
2018-10-19T23:14:45.048Z,11.60
2018-10-19T23:17:20.377Z,11.60
2018-10-19T23:19:55.532Z,11.60
2018-10-19T23:22:31.059Z,11.60
2018-10-19T23:25:07.345Z,11.50
2018-10-19T23:27:42.584Z,11.60
2018-10-19T23:30:17.655Z,11.50
2018-10-19T23:32:52.678Z,11.50
2018-10-19T23:35:27.618Z,11.50
2018-10-19T23:38:02.826Z,11.50
2018-10-19T23:40:38.277Z,11.50
2018-10-19T23:43:13.295Z,11.50
2018-10-19T23:45:48.735Z,11.50
2018-10-19T23:48:23.812Z,11.40
2018-10-19T23:50:59.017Z,11.40
2018-10-19T23:53:28.520Z,11.40
2018-10-19T23:56:03.234Z,11.30
2018-10-19T23:58:39.245Z,11.30
